Flight Track Log - Related Links

Times and Time Zones

All times are in EDT time to prevent confusion due to time zone crossing. See the N717AN flight status page for this flight to view local times or setup timezone preferences in your user account.

Time Position Orientation Groundspeed Altitude Reporting Facility
EDT Latitude Longitude Course Direction KTS MPH feet Rate Location/Type
Sat 06:07:52 PM 32.9700 -97.0290 North 232 267 2,600  Level FlightAware ADS-B
Sat 06:08:17 PM 32.9970 -97.0270 North 249 287 3,300 2,182 Climbing FlightAware ADS-B
Sat 06:08:47 PM 33.0310 -97.0170 14° North 255 293 4,600 2,400 Climbing FlightAware ADS-B
Sat 06:09:02 PM 33.0440 -97.0020 44° Northeast 269 310 5,100 2,000 Climbing FlightAware ADS-B
Sat 06:09:17 PM 33.0510 -96.9790 70° East 285 328 5,600 1,950 Climbing FlightAware ADS-B
Sat 06:09:42 PM 33.0520 -96.9400 88° East 294 338 6,400 2,073 Climbing FlightAware ADS-B
Sat 06:10:12 PM 33.0540 -96.8910 87° East 301 346 7,500 2,073 Climbing FlightAware ADS-B
Sat 06:10:37 PM 33.0560 -96.8510 87° East 307 353 8,300 2,073 Climbing FlightAware ADS-B
Sat 06:11:07 PM 33.0590 -96.7990 86° East 313 360 9,400 1,886 Climbing FlightAware ADS-B
Sat 06:11:47 PM 33.0630 -96.7250 86° East 337 388 10,500 1,482 Climbing FlightAware ADS-B
Sat 06:12:32 PM 33.0670 -96.6380 87° East 376 433 11,500 1,271 Climbing FlightAware ADS-B
Sat 06:13:12 PM 33.0720 -96.5490 86° East 414 476 12,300 1,906 Climbing FlightAware ADS-B
Sat 06:13:57 PM 33.0770 -96.4490 87° East 424 488 14,200 2,259 Climbing FlightAware ADS-B
Sat 06:14:37 PM 33.0820 -96.3530 86° East 441 507 15,500 2,025 Climbing FlightAware ADS-B
Sat 06:15:17 PM 33.1040 -96.2570 75° East 449 517 16,900 1,976 Climbing FlightAware ADS-B
Sat 06:16:02 PM 33.1370 -96.1490 70° East 466 536 18,300 1,906 Climbing FlightAware ADS-B
Sat 06:16:42 PM 33.1660 -96.0500 71° East 479 551 19,600 1,835 Climbing FlightAware ADS-B
Sat 06:17:27 PM 33.2000 -95.9360 70° East 491 565 20,900 1,694 Climbing FlightAware ADS-B
Sat 06:18:07 PM 33.2290 -95.8360 71° East 502 578 22,000 1,624 Climbing FlightAware ADS-B
Sat 06:18:52 PM 33.2640 -95.7150 71° East 516 594 23,200 1,553 Climbing FlightAware ADS-B
Sat 06:19:32 PM 33.2950 -95.6090 71° East 524 603 24,200 1,553 Climbing FlightAware ADS-B
Sat 06:20:17 PM 33.3310 -95.4870 71° East 531 611 25,400 1,553 Climbing FlightAware ADS-B
Sat 06:20:57 PM 33.3640 -95.3720 71° East 540 621 26,400 1,440 Climbing FlightAware ADS-B
Sat 06:21:32 PM 33.3920 -95.2740 71° East 544 626 27,200 1,412 Climbing FlightAware ADS-B
Sat 06:22:22 PM 33.4330 -95.1290 71° East 550 633 28,400 1,341 Climbing FlightAware ADS-B
Sat 06:22:57 PM 33.4620 -95.0300 71° East 556 640 29,100 525 Climbing FlightAware ADS-B
Sat 06:23:42 PM 33.4950 -94.9130 71° East 556 640 29,100  Level FlightAware ADS-B
Sat 06:24:22 PM 33.5240 -94.8140 71° East 556 640 29,100  Level FlightAware ADS-B
Sat 06:25:02 PM 33.5520 -94.7150 71° East 556 640 29,100 1,341 Level FlightAware ADS-B
Sat 06:25:47 PM 33.6020 -94.5330 72° East 559 643 31,000 1,341 Climbing FlightAware ADS-B
Sat 06:26:27 PM 33.6310 -94.4330 71° East 559 643 31,000  Level FlightAware ADS-B
Sat 06:27:07 PM 33.6600 -94.3340 71° East 559 643 31,000  Level FlightAware ADS-B
Sat 06:27:57 PM 33.6950 -94.2090 71° East 559 643 31,000  Level FlightAware ADS-B
Sat 06:28:37 PM 33.7240 -94.1090 71° East 559 643 31,000  Level FlightAware ADS-B
Sat 06:29:17 PM 33.7530 -94.0090 71° East 559 643 31,000  Level FlightAware ADS-B
Sat 06:29:57 PM 33.8780 -93.8360 49° Northeast 554 638 31,000  Level FlightAware ADS-B
Sat 06:30:42 PM 33.9340 -93.7230 59° Northeast 554 638 31,000  Level FlightAware ADS-B
Sat 06:31:22 PM 33.9790 -93.6330 59° Northeast 554 638 31,000  Level FlightAware ADS-B
Sat 06:32:02 PM 34.0240 -93.5430 59° Northeast 554 638 31,000  Level FlightAware ADS-B
Sat 06:32:42 PM 34.0690 -93.4530 59° Northeast 554 638 31,000  Level FlightAware ADS-B
Sat 06:33:32 PM 34.1250 -93.3400 59° Northeast 554 638 31,000  Level FlightAware ADS-B
Sat 06:34:12 PM 34.1700 -93.2500 59° Northeast 554 638 31,000  Level FlightAware ADS-B
Sat 06:34:52 PM 34.2150 -93.1600 59° Northeast 554 638 31,000  Level FlightAware ADS-B
Sat 06:35:32 PM 34.2600 -93.0690 59° Northeast 554 638 31,000  Level FlightAware ADS-B
Sat 06:36:12 PM 34.3040 -92.9790 59° Northeast 554 638 31,000  Level FlightAware ADS-B
Sat 06:37:02 PM 34.3600 -92.8660 59° Northeast 554 638 31,000  Level FlightAware ADS-B
Sat 06:37:42 PM 34.4050 -92.7750 59° Northeast 554 638 31,000  Level FlightAware ADS-B
Sat 06:38:22 PM 34.4500 -92.6850 59° Northeast 554 638 31,000  Level FlightAware ADS-B
Sat 06:39:02 PM 34.4950 -92.5940 59° Northeast 554 638 31,000  Level FlightAware ADS-B
Sat 06:39:42 PM 34.5400 -92.5040 59° Northeast 554 638 31,000  Level FlightAware ADS-B
Sat 06:40:21 PM 34.8539 -92.3386 59° Northeast 535 616 31,000  Level Memphis Center
Sat 06:41:21 PM 34.9625 -92.2094 44° Northeast 535 616 31,000  Level Memphis Center
Sat 06:42:21 PM 35.0683 -92.0875 43° Northeast 530 610 31,000  Level Memphis Center
Sat 06:43:21 PM 35.1744 -91.9550 46° Northeast 530 610 31,000  Level Memphis Center
Sat 06:44:21 PM 35.2764 -91.8194 47° Northeast 530 610 31,000  Level Memphis Center
Sat 06:45:21 PM 35.3758 -91.6786 49° Northeast 535 616 31,000  Level Memphis Center
Sat 06:46:21 PM 35.4692 -91.5322 52° Northeast 542 624 31,000  Level Memphis Center
Sat 06:47:21 PM 35.5517 -91.3956 53° Northeast 547 629 31,000  Level Memphis Center
Sat 06:48:21 PM 35.6425 -91.2433 54° Northeast 547 629 31,000  Level Memphis Center
Sat 06:49:21 PM 35.7269 -91.0908 56° Northeast 547 629 31,000  Level Memphis Center
Sat 06:50:21 PM 35.8175 -90.9356 54° Northeast 542 624 31,000  Level Memphis Center
Sat 06:51:22 PM 35.9078 -90.7825 54° Northeast 542 624 31,000  Level Memphis Center
Sat 06:52:21 PM 36.0039 -90.6367 51° Northeast 542 624 31,000  Level Memphis Center
Sat 06:53:21 PM 36.1086 -90.4983 47° Northeast 542 624 31,000  Level Memphis Center
Sat 06:54:21 PM 36.2150 -90.3647 45° Northeast 542 624 31,000 300 Level Memphis Center
Sat 06:55:21 PM 36.3294 -90.2153 46° Northeast 537 618 31,600 950 Climbing Memphis Center
Sat 06:56:21 PM 36.4378 -90.0836 44° Northeast 537 618 32,900 202 Climbing Memphis Center
Sat 07:02:17 PM 37.0730 -89.3070 44° Northeast 541 623 33,000 15 Climbing FlightAware ADS-B
Sat 07:03:02 PM 37.1470 -89.2200 43° Northeast 541 623 33,000  Level FlightAware ADS-B
Sat 07:03:52 PM 37.2250 -89.1290 43° Northeast 541 623 33,000  Level FlightAware ADS-B
Sat 07:04:32 PM 37.3230 -89.0100 44° Northeast 544 626 33,000  Level FlightAware ADS-B
Sat 07:05:12 PM 37.3960 -88.9240 43° Northeast 545 627 33,000  Level FlightAware ADS-B
Sat 07:05:57 PM 37.4810 -88.8240 43° Northeast 544 626 33,000  Level FlightAware ADS-B
Sat 07:06:37 PM 37.5520 -88.7410 43° Northeast 544 626 33,000  Level FlightAware ADS-B
Sat 07:07:22 PM 37.6370 -88.6410 43° Northeast 546 628 33,000  Level FlightAware ADS-B
Sat 07:08:02 PM 37.7100 -88.5560 43° Northeast 547 629 33,000  Level FlightAware ADS-B
Sat 07:08:42 PM 37.7860 -88.4710 41° Northeast 544 626 33,000  Level FlightAware ADS-B
Sat 07:09:27 PM 37.8700 -88.3770 41° Northeast 546 628 33,000  Level FlightAware ADS-B
Sat 07:10:07 PM 37.9490 -88.2890 41° Northeast 549 632 33,000  Level FlightAware ADS-B
Sat 07:10:47 PM 38.0150 -88.2000 47° Northeast 552 635 33,000  Level FlightAware ADS-B
Sat 07:11:32 PM 38.0770 -88.0720 58° Northeast 546 628 33,000  Level FlightAware ADS-B
Sat 07:12:12 PM 38.1140 -87.9560 68° East 540 621 33,000  Level FlightAware ADS-B
Sat 07:12:57 PM 38.1530 -87.8260 69° East 541 623 33,000  Level FlightAware ADS-B
Sat 07:13:37 PM 38.1900 -87.7060 69° East 542 624 33,000  Level FlightAware ADS-B
Sat 07:14:22 PM 38.2310 -87.5710 69° East 546 628 33,000  Level FlightAware ADS-B
Sat 07:15:02 PM 38.2670 -87.4490 69° East 550 633 33,000  Level FlightAware ADS-B
Sat 07:15:42 PM 38.3030 -87.3280 69° East 552 635 33,000  Level FlightAware ADS-B
Sat 07:16:27 PM 38.3440 -87.1900 69° East 554 638 33,000  Level FlightAware ADS-B
Sat 07:17:07 PM 38.3790 -87.0730 69° East 554 638 33,000  Level FlightAware ADS-B
Sat 07:17:37 PM 38.4060 -86.9800 70° East 554 638 33,000  Level FlightAware ADS-B
Sat 07:18:17 PM 38.4410 -86.8590 70° East 552 635 33,000  Level FlightAware ADS-B
Sat 07:19:02 PM 38.4800 -86.7270 69° East 553 636 33,000  Level FlightAware ADS-B
Sat 07:19:37 PM 38.5130 -86.6120 70° East 553 636 33,000  Level FlightAware ADS-B
Sat 07:20:22 PM 38.5500 -86.4830 70° East 547 629 33,000  Level FlightAware ADS-B
Sat 07:21:07 PM 38.5910 -86.3410 70° East 546 628 33,000  Level FlightAware ADS-B
Sat 07:21:47 PM 38.6260 -86.2190 70° East 544 626 33,000  Level FlightAware ADS-B
Sat 07:22:32 PM 38.6650 -86.0830 70° East 542 624 33,000  Level FlightAware ADS-B
Sat 07:23:12 PM 38.7000 -85.9600 70° East 543 625 33,000  Level FlightAware ADS-B
Sat 07:23:57 PM 38.7370 -85.8260 70° East 541 623 33,000  Level FlightAware ADS-B
Sat 07:24:37 PM 38.7710 -85.7050 70° East 538 619 33,000  Level FlightAware ADS-B
Sat 07:25:17 PM 38.8040 -85.5850 71° East 534 615 33,000  Level FlightAware ADS-B
Sat 07:26:02 PM 38.8400 -85.4550 70° East 530 610 33,000  Level FlightAware ADS-B
Sat 07:26:42 PM 38.8730 -85.3360 70° East 528 608 33,000  Level FlightAware ADS-B
Sat 07:27:27 PM 38.9090 -85.2050 71° East 524 603 33,000  Level FlightAware ADS-B
Sat 07:28:17 PM 38.9480 -85.0660 70° East 523 602 33,000  Level FlightAware ADS-B
Sat 07:28:57 PM 38.9760 -84.9660 70° East 523 602 33,000  Level FlightAware ADS-B
Sat 07:29:47 PM 39.0110 -84.8420 70° East 523 602 33,000  Level FlightAware ADS-B
Sat 07:30:27 PM 39.0390 -84.7430 70° East 523 602 33,000  Level FlightAware ADS-B
Sat 07:31:07 PM 39.0680 -84.6430 69° East 523 602 33,000  Level FlightAware ADS-B
Sat 07:31:47 PM 39.0960 -84.5430 70° East 523 602 33,000  Level FlightAware ADS-B
Sat 07:32:27 PM 39.1240 -84.4440 70° East 523 602 33,000  Level FlightAware ADS-B
Sat 07:33:17 PM 39.1590 -84.3190 70° East 523 602 33,000  Level FlightAware ADS-B
Sat 07:33:57 PM 39.1870 -84.2200 70° East 523 602 33,000  Level FlightAware ADS-B
Sat 07:34:42 PM 39.2540 -83.9190 74° East 523 602 33,000  Level FlightAware ADS-B
Sat 07:35:17 PM 39.2800 -83.8180 72° East 523 602 33,000  Level FlightAware ADS-B
Sat 07:36:02 PM 39.3140 -83.6910 71° East 523 602 33,000  Level FlightAware ADS-B
Sat 07:36:47 PM 39.3490 -83.5540 72° East 522 601 33,000  Level FlightAware ADS-B
Sat 07:37:27 PM 39.3820 -83.4360 70° East 522 601 33,000  Level FlightAware ADS-B
Sat 07:38:07 PM 39.4190 -83.3220 67° East 524 603 33,000  Level FlightAware ADS-B
Sat 07:38:52 PM 39.4610 -83.1890 68° East 522 601 33,000  Level FlightAware ADS-B
Sat 07:39:32 PM 39.4950 -83.0810 68° East 521 600 33,000  Level FlightAware ADS-B
Sat 07:40:12 PM 39.5280 -82.9700 69° East 521 600 33,000  Level FlightAware ADS-B
Sat 07:40:57 PM 39.5720 -82.8240 69° East 524 603 33,000  Level FlightAware ADS-B
Sat 07:41:32 PM 39.6020 -82.7260 68° East 525 604 33,000  Level FlightAware ADS-B
Sat 07:42:22 PM 39.6480 -82.5740 69° East 527 606 33,000  Level FlightAware ADS-B
Sat 07:43:02 PM 39.6820 -82.4610 69° East 528 608 33,000  Level FlightAware ADS-B
Sat 07:43:47 PM 39.7230 -82.3240 69° East 528 608 33,000  Level FlightAware ADS-B
Sat 07:44:27 PM 39.7580 -82.2060 69° East 527 606 33,000  Level FlightAware ADS-B
Sat 07:45:07 PM 39.7920 -82.0910 69° East 527 606 33,000  Level FlightAware ADS-B
Sat 07:45:52 PM 39.8310 -81.9580 69° East 529 609 33,000  Level FlightAware ADS-B
Sat 07:46:32 PM 39.8660 -81.8380 69° East 530 610 33,000  Level FlightAware ADS-B
Sat 07:47:17 PM 39.9070 -81.7000 69° East 531 611 33,000  Level FlightAware ADS-B
Sat 07:47:57 PM 39.9410 -81.5830 69° East 532 612 33,000  Level FlightAware ADS-B
Sat 07:48:42 PM 39.9790 -81.4500 70° East 532 612 33,000  Level FlightAware ADS-B
Sat 07:49:22 PM 40.0140 -81.3300 69° East 533 613 33,000  Level FlightAware ADS-B
Sat 07:50:02 PM 40.0480 -81.2100 70° East 534 615 33,000  Level FlightAware ADS-B
Sat 07:50:47 PM 40.0870 -81.0730 70° East 535 616 33,000  Level FlightAware ADS-B
Sat 07:51:27 PM 40.1230 -80.9490 69° East 537 618 33,000  Level FlightAware ADS-B
Sat 07:52:07 PM 40.1570 -80.8280 70° East 538 619 33,000  Level FlightAware ADS-B
Sat 07:52:52 PM 40.1940 -80.6960 70° East 539 620 33,000  Level FlightAware ADS-B
Sat 07:53:37 PM 40.2340 -80.5530 70° East 540 621 33,000  Level FlightAware ADS-B
Sat 07:54:17 PM 40.2680 -80.4320 70° East 541 623 33,000  Level FlightAware ADS-B
Sat 07:55:02 PM 40.3060 -80.2950 70° East 541 623 33,000  Level FlightAware ADS-B
Sat 07:55:42 PM 40.3400 -80.1710 70° East 539 620 33,000  Level FlightAware ADS-B
Sat 07:56:27 PM 40.3780 -80.0340 70° East 539 620 33,000  Level FlightAware ADS-B
Sat 07:57:07 PM 40.4120 -79.9110 70° East 540 621 33,000  Level FlightAware ADS-B
Sat 07:57:47 PM 40.4450 -79.7890 70° East 541 623 33,000  Level FlightAware ADS-B
Sat 07:58:32 PM 40.4830 -79.6490 70° East 541 623 33,000  Level FlightAware ADS-B
Sat 07:59:12 PM 40.5170 -79.5240 70° East 540 621 33,000  Level FlightAware ADS-B
Sat 07:59:57 PM 40.5470 -79.4130 70° East 541 623 33,000  Level FlightAware ADS-B
Sat 08:02:02 PM 40.6520 -79.0150 71° East 540 621 33,000  Level FlightAware ADS-B
Sat 08:02:37 PM 40.6800 -78.9100 71° East 537 618 33,000  Level FlightAware ADS-B
Sat 08:03:27 PM 40.7200 -78.7580 71° East 532 612 33,000  Level FlightAware ADS-B
Sat 08:04:07 PM 40.7530 -78.6310 71° East 532 612 33,000  Level FlightAware ADS-B
Sat 08:04:47 PM 40.7830 -78.5140 71° East 532 612 33,000  Level FlightAware ADS-B
Sat 08:05:32 PM 40.8180 -78.3770 71° East 531 611 33,000  Level FlightAware ADS-B
Sat 08:06:12 PM 40.8510 -78.2480 71° East 534 615 33,000  Level FlightAware ADS-B
Sat 08:06:52 PM 40.8830 -78.1250 71° East 533 613 33,000  Level FlightAware ADS-B
Sat 08:07:37 PM 40.9210 -77.9930 69° East 523 602 33,000  Level FlightAware ADS-B
Sat 08:08:17 PM 40.9690 -77.8780 61° Northeast 517 595 33,000  Level FlightAware ADS-B
Sat 08:09:02 PM 41.0230 -77.7550 60° Northeast 516 594 33,000  Level FlightAware ADS-B
Sat 08:09:12 PM 41.0441 -77.7063 60° Northeast 516 594 33,000  Level FlightAware ADS-B
Sat 08:09:42 PM 41.0710 -77.6460 59° Northeast 514 592 33,000  Level FlightAware ADS-B
Sat 08:09:46 PM 41.0850 -77.6133 60° Northeast 514 592 33,000  Level FlightAware ADS-B
Sat 08:10:24 PM 41.1295 -77.5119 60° Northeast 510 587 33,000  Level FlightAware ADS-B
Sat 08:11:07 PM 41.1720 -77.4160 59° Northeast 509 586 33,000  Level FlightAware ADS-B
Sat 08:11:51 PM 41.2327 -77.2773 60° Northeast 509 586 33,000  Level FlightAware ADS-B
Sat 08:12:28 PM 41.2761 -77.1782 60° Northeast 509 586 33,000  Level FlightAware ADS-B
Sat 08:12:58 PM 41.3112 -77.0977 60° Northeast 506 582 33,000  Level FlightAware ADS-B
Sat 08:13:28 PM 41.3472 -77.0148 60° Northeast 504 580 33,000  Level FlightAware ADS-B
Sat 08:13:59 PM 41.3829 -76.9324 60° Northeast 504 580 33,000  Level FlightAware ADS-B
Sat 08:14:29 PM 41.4179 -76.8515 60° Northeast 505 581 33,000  Level FlightAware ADS-B
Sat 08:15:00 PM 41.4532 -76.7695 60° Northeast 503 579 33,000  Level FlightAware ADS-B
Sat 08:15:30 PM 41.4885 -76.6871 60° Northeast 501 577 33,000  Level FlightAware ADS-B
Sat 08:16:03 PM 41.5252 -76.6015 60° Northeast 498 573 33,000  Level FlightAware ADS-B
Sat 08:16:36 PM 41.5634 -76.5122 60° Northeast 499 574 33,000  Level FlightAware ADS-B
Sat 08:17:07 PM 41.5988 -76.4290 60° Northeast 498 573 33,000  Level FlightAware ADS-B
Sat 08:17:38 PM 41.6332 -76.3478 60° Northeast 497 572 33,000  Level FlightAware ADS-B
Sat 08:18:09 PM 41.6681 -76.2654 60° Northeast 494 568 33,000  Level FlightAware ADS-B
Sat 08:18:42 PM 41.7053 -76.1774 60° Northeast 493 567 33,000  Level FlightAware ADS-B
Sat 08:19:13 PM 41.7397 -76.0956 61° Northeast 494 568 33,000  Level FlightAware ADS-B
Sat 08:19:43 PM 41.7739 -76.0142 61° Northeast 500 575 33,000  Level FlightAware ADS-B
Sat 08:20:15 PM 41.8098 -75.9284 61° Northeast 501 577 33,000  Level FlightAware ADS-B
Sat 08:20:46 PM 41.8445 -75.8453 61° Northeast 501 577 33,000  Level FlightAware ADS-B
Sat 08:21:17 PM 41.8797 -75.7604 61° Northeast 496 571 33,000  Level FlightAware ADS-B
Sat 08:21:47 PM 41.9000 -75.7110 61° Northeast 492 566 33,000  Level FlightAware ADS-B
Sat 08:22:09 PM 41.9367 -75.6233 61° Northeast 494 568 33,000  Level FlightAware ADS-B
Sat 08:22:47 PM 41.9785 -75.5219 61° Northeast 494 568 33,000  Level FlightAware ADS-B
Sat 08:23:17 PM 42.0000 -75.4710 60° Northeast 483 556 33,000  Level FlightAware ADS-B
Sat 08:23:43 PM 42.0392 -75.3746 61° Northeast 484 557 33,000  Level FlightAware ADS-B
Sat 08:24:15 PM 42.0743 -75.2932 60° Northeast 481 554 33,000  Level FlightAware ADS-B
Sat 08:24:48 PM 42.1124 -75.2097 58° Northeast 478 550 33,000  Level FlightAware ADS-B
Sat 08:25:22 PM 42.1524 -75.1229 58° Northeast 476 548 33,000  Level FlightAware ADS-B
Sat 08:26:02 PM 42.1940 -75.0320 58° Northeast 475 547 33,000  Level FlightAware ADS-B
Sat 08:26:10 PM 42.2078 -75.0025 58° Northeast 475 547 33,000  Level FlightAware ADS-B
Sat 08:26:57 PM 42.2520 -74.9070 58° Northeast 475 547 33,000  Level FlightAware ADS-B
Sat 08:27:42 PM 42.3000 -74.8010 58° Northeast 474 545 33,000  Level FlightAware ADS-B
Sat 08:28:22 PM 42.3570 -74.6750 58° Northeast 471 542 33,000  Level FlightAware ADS-B
Sat 08:28:48 PM 42.3885 -74.6063 58° Northeast 33,000  Level FlightAware ADS-B
Sat 08:29:42 PM 42.4430 -74.4870 58° Northeast 469 540 33,000  Level FlightAware ADS-B
Sat 08:30:22 PM 42.4820 -74.4020 58° Northeast 469 540 33,000  Level FlightAware ADS-B
Sat 08:31:12 PM 42.5310 -74.2960 58° Northeast 469 540 33,000  Level FlightAware ADS-B
Sat 08:31:52 PM 42.5700 -74.2110 58° Northeast 469 540 33,000  Level FlightAware ADS-B
Sat 08:32:32 PM 42.6090 -74.1260 58° Northeast 469 540 33,000  Level FlightAware ADS-B
Sat 08:33:12 PM 42.6480 -74.0410 58° Northeast 469 540 33,000  Level FlightAware ADS-B
Sat 08:33:52 PM 42.6870 -73.9560 58° Northeast 469 540 33,000  Level FlightAware ADS-B
Sat 08:34:42 PM 42.7360 -73.8500 58° Northeast 469 540 33,000  Level FlightAware ADS-B
Sat 08:36:02 PM 42.8520 -73.5180 64° Northeast 466 536 33,000  Level FlightAware ADS-B
Sat 08:36:47 PM 42.8980 -73.3880 64° Northeast 466 536 33,000  Level FlightAware ADS-B
Sat 08:37:27 PM 42.9350 -73.2850 64° Northeast 465 535 33,000  Level FlightAware ADS-B
Sat 08:38:37 PM 42.9970 -73.1110 64° Northeast 466 536 33,000  Level FlightAware ADS-B
Sat 08:39:22 PM 43.0430 -72.9840 64° Northeast 464 534 33,000  Level FlightAware ADS-B
Sat 08:40:12 PM 43.0880 -72.8580 64° Northeast 463 533 33,000  Level FlightAware ADS-B
Sat 08:40:57 PM 43.1310 -72.7330 65° Northeast 462 532 33,000  Level FlightAware ADS-B
Sat 08:41:42 PM 43.1740 -72.6100 64° Northeast 462 532 33,000  Level FlightAware ADS-B
Sat 08:42:22 PM 43.2110 -72.5070 64° Northeast 462 532 33,000  Level FlightAware ADS-B
Sat 08:43:02 PM 43.2480 -72.4000 65° Northeast 461 531 33,000  Level FlightAware ADS-B
Sat 08:43:47 PM 43.2880 -72.2860 64° Northeast 462 532 33,000  Level FlightAware ADS-B
Sat 08:44:27 PM 43.3250 -72.1790 65° Northeast 463 533 33,000  Level FlightAware ADS-B
Sat 08:45:07 PM 43.3610 -72.0720 65° Northeast 464 534 33,000  Level FlightAware ADS-B
Sat 08:45:52 PM 43.4020 -71.9540 64° Northeast 464 534 33,000  Level FlightAware ADS-B
Sat 08:46:32 PM 43.4390 -71.8450 65° Northeast 467 537 33,000  Level FlightAware ADS-B
Sat 08:47:17 PM 43.4810 -71.7210 65° Northeast 466 536 33,000  Level FlightAware ADS-B
Sat 08:47:57 PM 43.5180 -71.6130 65° Northeast 469 540 33,000  Level FlightAware ADS-B
Sat 08:48:37 PM 43.5540 -71.5070 65° Northeast 471 542 33,000  Level FlightAware ADS-B
Sat 08:49:22 PM 43.5950 -71.3840 65° Northeast 474 545 33,000  Level FlightAware ADS-B
Sat 08:50:02 PM 43.6320 -71.2730 65° Northeast 478 550 33,000  Level FlightAware ADS-B
Sat 08:50:47 PM 43.6740 -71.1480 65° Northeast 480 552 33,000  Level FlightAware ADS-B
Sat 08:51:27 PM 43.7110 -71.0340 66° East 482 555 33,000  Level FlightAware ADS-B
Sat 08:52:12 PM 43.7510 -70.9130 65° Northeast 483 556 33,000  Level FlightAware ADS-B
Sat 08:52:52 PM 43.7880 -70.8000 66° East 484 557 33,000  Level FlightAware ADS-B
Sat 08:53:32 PM 43.8250 -70.6870 66° East 486 559 33,000  Level FlightAware ADS-B
Sat 08:54:17 PM 43.8680 -70.5560 65° Northeast 484 557 33,000  Level FlightAware ADS-B
Sat 08:54:57 PM 43.9040 -70.4460 66° East 483 556 33,000  Level FlightAware ADS-B
Sat 08:55:42 PM 43.9440 -70.3210 66° East 479 551 33,000  Level FlightAware ADS-B
Sat 08:56:22 PM 43.9810 -70.2070 66° East 479 551 33,000  Level FlightAware ADS-B
Sat 08:57:02 PM 44.0160 -70.0960 66° East 479 551 33,000  Level FlightAware ADS-B
Sat 08:57:37 PM 44.0480 -69.9960 66° East 479 551 33,000  Level FlightAware ADS-B
Sat 08:58:22 PM 44.0870 -69.8730 66° East 480 552 33,000  Level FlightAware ADS-B
Sat 08:59:07 PM 44.1290 -69.7410 66° East 480 552 33,000  Level FlightAware ADS-B
Sat 08:59:52 PM 44.1670 -69.6180 67° East 476 548 33,000  Level FlightAware ADS-B
Sat 09:00:32 PM 44.2020 -69.5060 66° East 475 547 33,000  Level FlightAware ADS-B
Sat 09:01:17 PM 44.2420 -69.3770 67° East 476 548 33,000  Level FlightAware ADS-B
Sat 09:01:57 PM 44.2770 -69.2640 67° East 477 549 33,000  Level FlightAware ADS-B
Sat 09:02:37 PM 44.3110 -69.1540 67° East 476 548 33,000  Level FlightAware ADS-B
Sat 09:03:22 PM 44.3500 -69.0290 66° East 474 545 33,000  Level FlightAware ADS-B
Sat 09:04:02 PM 44.3860 -68.9110 67° East 472 543 33,000  Level FlightAware ADS-B
Sat 09:04:47 PM 44.4230 -68.7880 67° East 472 543 33,000  Level FlightAware ADS-B
Sat 09:05:27 PM 44.4570 -68.6760 67° East 471 542 33,000  Level FlightAware ADS-B
Sat 09:06:07 PM 44.4920 -68.5620 67° East 471 542 33,000  Level FlightAware ADS-B
Sat 09:06:52 PM 44.5300 -68.4340 67° East 473 544 33,000  Level FlightAware ADS-B
Sat 09:07:32 PM 44.5640 -68.3200 67° East 474 545 33,000  Level FlightAware ADS-B
Sat 09:08:17 PM 44.6010 -68.1940 68° East 476 548 33,000  Level FlightAware ADS-B
Sat 09:08:57 PM 44.6350 -68.0820 67° East 478 550 33,000  Level FlightAware ADS-B
Sat 09:09:42 PM 44.6720 -67.9540 68° East 478 550 33,000  Level FlightAware ADS-B
Sat 09:10:22 PM 44.7060 -67.8370 68° East 478 550 33,000  Level FlightAware ADS-B
Sat 09:11:02 PM 44.7400 -67.7210 68° East 478 550 33,000  Level FlightAware ADS-B
Sat 09:11:47 PM 44.7770 -67.5940 68° East 480 552 33,000  Level FlightAware ADS-B
Sat 09:12:27 PM 44.8110 -67.4760 68° East 480 552 33,000  Level FlightAware ADS-B
Sat 09:13:12 PM 44.8470 -67.3500 68° East 481 554 33,000  Level FlightAware ADS-B
Sat 09:13:52 PM 44.8800 -67.2370 68° East 483 556 33,000  Level FlightAware ADS-B
Sat 09:14:32 PM 44.9290 -67.1280 58° Northeast 483 556 33,000  Level FlightAware ADS-B
Sat 09:15:17 PM 45.0020 -67.0400 40° Northeast 484 557 33,000  Level FlightAware ADS-B
Sat 09:17:07 PM 45.1900 -66.8180 40° Northeast 487 560 33,000  Level FlightAware ADS-B
Sat 09:18:17 PM 45.3110 -66.6740 40° Northeast 489 563 33,000  Level FlightAware ADS-B
Sat 09:19:27 PM 45.4320 -66.5290 40° Northeast 490 564 33,000  Level FlightAware ADS-B
Sat 09:20:37 PM 45.5530 -66.3830 40° Northeast 485 558 33,000  Level FlightAware ADS-B
Sat 09:21:47 PM 45.6740 -66.2370 40° Northeast 490 564 33,000  Level FlightAware ADS-B
Sat 09:22:57 PM 45.7950 -66.0890 40° Northeast 492 566 33,000  Level FlightAware ADS-B
Sat 09:24:07 PM 45.9130 -65.9440 41° Northeast 492 566 33,000  Level FlightAware ADS-B
Sat 09:25:32 PM 46.0680 -65.7540 40° Northeast 490 564 33,000  Level FlightAware ADS-B
Sat 09:26:07 PM 46.1240 -65.6840 41° Northeast 490 564 33,000  Level FlightAware ADS-B
Sat 09:27:02 PM 46.2170 -65.5700 40° Northeast 489 563 33,000  Level FlightAware ADS-B
Sat 09:27:52 PM 46.2900 -65.4800 40° Northeast 489 563 33,000  Level FlightAware ADS-B
Sat 09:28:32 PM 46.3490 -65.4090 40° Northeast 489 563 33,000  Level FlightAware ADS-B
Sat 09:29:12 PM 46.4080 -65.3370 40° Northeast 489 563 33,000  Level FlightAware ADS-B
Sat 09:29:52 PM 46.4670 -65.2650 40° Northeast 489 563 33,000  Level FlightAware ADS-B
Sat 09:30:32 PM 46.5260 -65.1930 40° Northeast 489 563 33,000  Level FlightAware ADS-B
Sat 09:31:22 PM 46.6000 -65.1040 40° Northeast 489 563 33,000  Level FlightAware ADS-B
Sat 09:32:02 PM 46.6590 -65.0320 40° Northeast 489 563 33,000  Level FlightAware ADS-B
Sat 09:32:42 PM 46.7180 -64.9590 40° Northeast 489 563 33,000  Level FlightAware ADS-B
Sat 09:33:22 PM 46.7760 -64.8870 40° Northeast 489 563 33,000  Level FlightAware ADS-B
Sat 09:34:02 PM 46.8350 -64.8150 40° Northeast 489 563 33,000  Level FlightAware ADS-B
Sat 09:34:42 PM 46.8940 -64.7430 40° Northeast 489 563 33,000  Level FlightAware ADS-B
Sat 09:35:32 PM 46.9680 -64.6520 40° Northeast 489 563 33,000  Level FlightAware ADS-B
Sat 09:36:12 PM 47.0270 -64.5800 40° Northeast 489 563 33,000  Level FlightAware ADS-B
Sat 09:36:32 PM 47.1667 -64.3333 40° Northeast 490 564 33,000  Level Gander Center
Sat 09:37:32 PM 47.2833 -64.1667 44° Northeast 500 575 33,000  Level Gander Center
Sat 09:38:32 PM 47.3833 -64.0500 38° Northeast 510 587 33,000  Level Gander Center
Sat 09:39:32 PM 47.5000 -63.9000 41° Northeast 500 575 33,000  Level Gander Center
Sat 09:40:32 PM 47.5833 -63.7667 47° Northeast 510 587 33,000  Level Gander Center
Sat 09:41:32 PM 47.6833 -63.6333 42° Northeast 500 575 33,000  Level Gander Center
Sat 09:42:32 PM 47.8167 -63.4667 40° Northeast 510 587 33,000  Level Gander Center
Sat 09:43:32 PM 47.9000 -63.3500 43° Northeast 500 575 33,000  Level Gander Center
Sat 09:44:32 PM 48.0167 -63.1833 44° Northeast 510 587 33,000  Level Gander Center
Sat 09:45:32 PM 48.1167 -63.0667 38° Northeast 510 587 33,000  Level Gander Center
Sat 09:46:32 PM 48.2167 -62.8833 51° Northeast 520 598 33,000  Level Gander Center
Sat 09:47:32 PM 48.3167 -62.7667 38° Northeast 520 598 33,000  Level Gander Center
Sat 09:48:32 PM 48.4333 -62.6000 43° Northeast 520 598 33,000  Level Gander Center
Sat 09:49:32 PM 48.5500 -62.4500 40° Northeast 520 598 33,000  Level Gander Center
Sat 09:50:32 PM 48.6500 -62.3000 45° Northeast 530 610 33,000  Level Gander Center
Sat 09:51:32 PM 48.7500 -62.1500 45° Northeast 520 598 33,000  Level Gander Center
Sat 09:52:20 PM 48.8500 -62.0333 37° Northeast 530 610 33,000  Level Moncton Center
Sat 09:53:20 PM 48.9500 -61.8667 48° Northeast 530 610 33,000  Level Moncton Center
Sat 09:54:20 PM 49.0667 -61.7167 40° Northeast 550 633 33,000  Level Moncton Center
Sat 09:55:20 PM 49.1500 -61.5500 53° Northeast 520 598 33,000  Level Moncton Center
Sat 09:56:20 PM 49.2667 -61.4000 40° Northeast 530 610 33,000  Level Moncton Center
Sat 09:57:20 PM 49.3667 -61.2333 47° Northeast 530 610 33,000  Level Moncton Center
Sat 09:58:20 PM 49.4833 -61.0667 43° Northeast 530 610 33,000  Level Moncton Center
Sat 09:59:20 PM 49.5833 -60.9333 41° Northeast 530 610 33,000  Level Moncton Center
Sat 10:00:20 PM 49.6833 -60.7667 47° Northeast 540 621 33,000  Level Moncton Center
Sat 10:01:20 PM 49.8000 -60.6167 40° Northeast 540 621 33,000  Level Moncton Center
Sat 10:02:20 PM 49.9167 -60.4500 43° Northeast 530 610 33,000  Level Moncton Center
Sat 10:03:20 PM 50.0167 -60.2833 47° Northeast 540 621 33,000  Level Moncton Center
Sat 10:04:20 PM 50.1167 -60.1167 47° Northeast 540 621 33,000  Level Moncton Center
Sat 10:05:20 PM 50.2333 -59.9500 42° Northeast 540 621 33,000  Level Moncton Center
Sat 10:06:20 PM 50.3333 -59.7833 47° Northeast 540 621 33,000  Level Moncton Center
Sat 10:07:20 PM 50.4500 -59.6167 42° Northeast 550 633 33,000 100 Level Moncton Center
Sat 10:08:20 PM 50.5333 -59.4167 57° Northeast 540 621 33,200 500 Climbing Moncton Center
Sat 10:09:20 PM 50.6333 -59.2500 47° Northeast 550 633 34,000 400 Climbing Moncton Center
Sat 10:10:20 PM 50.7500 -59.0500 47° Northeast 540 621 34,000  Level Moncton Center
Sat 10:11:20 PM 50.8167 -58.8833 58° Northeast 540 621 34,000  Level Moncton Center
Sat 10:12:20 PM 50.9333 -58.6833 47° Northeast 550 633 34,000  Level Moncton Center
Sat 10:13:20 PM 51.0167 -58.4833 56° Northeast 550 633 34,000  Level Moncton Center
Sat 10:14:20 PM 51.1333 -58.2833 47° Northeast 550 633 34,000  Level Moncton Center
Sat 10:15:20 PM 51.2167 -58.1167 51° Northeast 560 644 34,000  Level Moncton Center
Sat 10:16:20 PM 51.3000 -57.9167 56° Northeast 550 633 34,000  Level Moncton Center
Sat 10:17:20 PM 51.4000 -57.7167 51° Northeast 560 644 34,000  Level Moncton Center
Sat 10:18:20 PM 51.5000 -57.5333 49° Northeast 560 644 34,000  Level Moncton Center
Sat 10:19:20 PM 51.6000 -57.3333 51° Northeast 560 644 34,000  Level Moncton Center
Sat 10:20:20 PM 51.6833 -57.1333 56° Northeast 550 633 34,000  Level Moncton Center
Sat 10:21:20 PM 51.7833 -56.9167 53° Northeast 550 633 34,000  Level Moncton Center
Sat 10:22:20 PM 51.8833 -56.7500 46° Northeast 550 633 34,000  Level Moncton Center
Sat 10:23:20 PM 51.9667 -56.5333 58° Northeast 550 633 34,000  Level Moncton Center
Sat 10:24:20 PM 52.0500 -56.3333 56° Northeast 550 633 34,000  Level Moncton Center
Sat 10:25:20 PM 52.1500 -56.1500 48° Northeast 560 644 34,000  Level Moncton Center
Sat 10:26:20 PM 52.2333 -55.9500 56° Northeast 560 644 34,000  Level Moncton Center
Sat 10:27:20 PM 52.3333 -55.7333 53° Northeast 560 644 34,000  Level Moncton Center
Sat 10:28:20 PM 52.4333 -55.5167 53° Northeast 550 633 34,000  Level Moncton Center
Sat 10:29:20 PM 52.5167 -55.3333 53° Northeast 550 633 34,000  Level Moncton Center
Sat 10:30:20 PM 52.6000 -55.1333 55° Northeast 560 644 34,000  Level Moncton Center
Sat 10:31:20 PM 52.7000 -54.9167 53° Northeast 550 633 34,000  Level Moncton Center
Sat 10:32:20 PM 52.7833 -54.7000 57° Northeast 550 633 34,000  Level Moncton Center
Sat 10:33:20 PM 52.8667 -54.4833 57° Northeast 550 633 34,000  Level Moncton Center
Sat 10:34:32 PM 52.9667 -54.2833 50° Northeast 540 621 34,000  Level Gander Center
Sat 10:35:32 PM 53.0500 -54.0667 57° Northeast 550 633 34,000  Level Gander Center
Sat 10:36:32 PM 53.1167 -53.8333 64° Northeast 550 633 34,000  Level Gander Center
Sat 10:37:32 PM 53.1667 -53.6000 70° East 550 633 34,000  Level Gander Center
Sat 10:38:32 PM 53.2167 -53.3667 70° East 540 621 34,000  Level Gander Center
Sat 10:39:32 PM 53.2833 -53.1333 64° Northeast 540 621 34,000  Level Gander Center
Sat 10:40:32 PM 53.3333 -52.9000 70° East 540 621 34,000  Level Gander Center
Sat 10:41:32 PM 53.4000 -52.6833 63° Northeast 530 610 34,000  Level Gander Center
Sat 10:42:32 PM 53.4500 -52.4500 70° East 540 621 34,000  Level Gander Center
Sat 10:43:32 PM 53.5167 -52.2167 64° Northeast 530 610 34,000  Level Gander Center
Sat 10:44:32 PM 53.5333 -51.9833 83° East 530 610 34,000  Level Gander Center
Sat 10:45:32 PM 53.6000 -51.7333 66° East 530 610 34,000  Level Gander Center
Sat 10:46:32 PM 53.6500 -51.5000 70° East 530 610 34,000  Level Gander Center
Sat 10:47:32 PM 53.7000 -51.2833 69° East 530 610 34,000  Level Gander Center
Sat 10:48:32 PM 53.7500 -51.0500 70° East 530 610 34,000  Level Gander Center
Sat 10:49:32 PM 53.8167 -50.8167 64° Northeast 530 610 34,000  Level Gander Center
Sat 10:50:32 PM 53.8500 -50.5667 77° East 530 610 34,000  Level Gander Center
Sat 10:51:32 PM 53.8833 -50.3333 76° East 530 610 34,000  Level Gander Center
Sat 10:52:32 PM 53.9500 -50.1167 62° Northeast 530 610 34,000  Level Gander Center
Sat 10:53:32 PM 54.0167 -49.8667 66° East 530 610 34,000  Level Gander Center
Sat 10:55:00 PM 54.0977 -49.5479 66° East  Level FlightAware Approximate
Sat 11:02:00 PM 54.4782 -47.9709 68° East  Level FlightAware Approximate
Sat 11:03:00 PM 54.5304 -47.7430 68° East  Level FlightAware Approximate
Sat 11:04:00 PM 54.5821 -47.5145 69° East  Level FlightAware Approximate
Sat 11:05:00 PM 54.6332 -47.2853 69° East  Level FlightAware Approximate
Sat 11:06:00 PM 54.6839 -47.0555 69° East  Level FlightAware Approximate
Sat 11:07:00 PM 54.7326 -46.8320 69° East  Level FlightAware Approximate
Sat 11:08:00 PM 54.7809 -46.6079 69° East  Level FlightAware Approximate
Sat 11:09:00 PM 54.8288 -46.3833 70° East  Level FlightAware Approximate
Sat 11:10:00 PM 54.8763 -46.1582 70° East  Level FlightAware Approximate
Sat 11:11:00 PM 54.9234 -45.9325 70° East  Level FlightAware Approximate
Sat 11:12:00 PM 54.9701 -45.7064 70° East  Level FlightAware Approximate
Sat 11:13:00 PM 55.0163 -45.4797 70° East  Level FlightAware Approximate
Sat 11:14:00 PM 55.0621 -45.2525 71° East  Level FlightAware Approximate
Sat 11:15:00 PM 55.1075 -45.0247 71° East  Level FlightAware Approximate
Sat 11:16:00 PM 55.1525 -44.7965 71° East  Level FlightAware Approximate
Sat 11:17:00 PM 55.1970 -44.5677 71° East  Level FlightAware Approximate
Sat 11:18:00 PM 55.2411 -44.3384 71° East  Level FlightAware Approximate
Sat 11:19:00 PM 55.2848 -44.1086 71° East  Level FlightAware Approximate
Sat 11:20:00 PM 55.3280 -43.8783 72° East  Level FlightAware Approximate
Sat 11:21:00 PM 55.3719 -43.6482 71° East  Level FlightAware Approximate
Sat 11:22:00 PM 55.4154 -43.4175 72° East  Level FlightAware Approximate
Sat 11:23:00 PM 55.4585 -43.1864 72° East  Level FlightAware Approximate
Sat 11:24:00 PM 55.5012 -42.9548 72° East  Level FlightAware Approximate
Sat 11:25:00 PM 55.5434 -42.7227 72° East  Level FlightAware Approximate
Sat 11:26:00 PM 55.5853 -42.4900 72° East  Level FlightAware Approximate
Sat 11:27:00 PM 55.6266 -42.2569 72° East  Level FlightAware Approximate
Sat 11:28:00 PM 55.6675 -42.0233 73° East  Level FlightAware Approximate
Sat 11:29:00 PM 55.7080 -41.7892 73° East  Level FlightAware Approximate
Sat 11:30:00 PM 55.7480 -41.5546 73° East  Level FlightAware Approximate
Sat 11:31:00 PM 55.7876 -41.3196 73° East  Level FlightAware Approximate
Sat 11:32:00 PM 55.8267 -41.0840 73° East  Level FlightAware Approximate
Sat 11:33:00 PM 55.8654 -40.8480 74° East  Level FlightAware Approximate
Sat 11:34:00 PM 55.9036 -40.6116 74° East  Level FlightAware Approximate
Sat 11:35:00 PM 55.9414 -40.3746 74° East  Level FlightAware Approximate
Sat 11:36:00 PM 55.9787 -40.1372 74° East  Level FlightAware Approximate
Sat 11:37:00 PM 56.0039 -39.8959 86° East  Level FlightAware Approximate
Sat 11:38:00 PM 56.0127 -39.6495 86° East  Level FlightAware Approximate
Sat 11:39:00 PM 56.0211 -39.4030 86° East  Level FlightAware Approximate
Sat 11:40:00 PM 56.0290 -39.1564 87° East  Level FlightAware Approximate
Sat 11:41:00 PM 56.0364 -38.9097 87° East  Level FlightAware Approximate
Sat 11:42:00 PM 56.0432 -38.6629 87° East  Level FlightAware Approximate
Sat 11:43:00 PM 56.0496 -38.4161 87° East  Level FlightAware Approximate
Sat 11:44:00 PM 56.0555 -38.1692 87° East  Level FlightAware Approximate
Sat 11:45:00 PM 56.0609 -37.9221 88° East  Level FlightAware Approximate
Sat 11:46:00 PM 56.0658 -37.6751 88° East  Level FlightAware Approximate
Sat 11:47:00 PM 56.0703 -37.4279 88° East  Level FlightAware Approximate
Sat 11:48:00 PM 56.0742 -37.1807 88° East  Level FlightAware Approximate
Sat 11:49:00 PM 56.0776 -36.9335 88° East  Level FlightAware Approximate
Sat 11:50:00 PM 56.0805 -36.6862 89° East  Level FlightAware Approximate
Sat 11:51:00 PM 56.0830 -36.4389 89° East  Level FlightAware Approximate
Sat 11:52:00 PM 56.0849 -36.1916 89° East  Level FlightAware Approximate
Sat 11:53:00 PM 56.0864 -35.9442 89° East  Level FlightAware Approximate
Sat 11:54:00 PM 56.0873 -35.6968 89° East  Level FlightAware Approximate
Sat 11:55:00 PM 56.0878 -35.4494 90° East  Level FlightAware Approximate
Sat 11:56:00 PM 56.0878 -35.2020 90° East  Level FlightAware Approximate
Sat 11:57:00 PM 56.0872 -34.9546 90° East  Level FlightAware Approximate
Sat 11:58:00 PM 56.0862 -34.7072 90° East  Level FlightAware Approximate
Sat 11:59:00 PM 56.0847 -34.4599 91° East  Level FlightAware Approximate
Sun 12:00:00 AM 56.0832 -34.2126 90° East  Level FlightAware Approximate
Sun 12:01:00 AM 56.0822 -33.9652 90° East  Level FlightAware Approximate
Sun 12:02:00 AM 56.0808 -33.7179 90° East  Level FlightAware Approximate
Sun 12:03:00 AM 56.0789 -33.4705 91° East  Level FlightAware Approximate
Sun 12:04:00 AM 56.0765 -33.2233 91° East  Level FlightAware Approximate
Sun 12:05:00 AM 56.0737 -32.9760 91° East  Level FlightAware Approximate
Sun 12:06:00 AM 56.0703 -32.7288 91° East  Level FlightAware Approximate
Sun 12:07:00 AM 56.0664 -32.4816 92° East  Level FlightAware Approximate
Sun 12:08:00 AM 56.0620 -32.2345 92° East  Level FlightAware Approximate
Sun 12:09:00 AM 56.0572 -31.9874 92° East  Level FlightAware Approximate
Sun 12:10:00 AM 56.0518 -31.7404 92° East  Level FlightAware Approximate
Sun 12:11:00 AM 56.0460 -31.4935 92° East  Level FlightAware Approximate
Sun 12:12:00 AM 56.0396 -31.2467 93° East  Level FlightAware Approximate
Sun 12:13:00 AM 56.0328 -30.9999 93° East  Level FlightAware Approximate
Sun 12:14:00 AM 56.0255 -30.7532 93° East  Level FlightAware Approximate
Sun 12:15:00 AM 56.0176 -30.5067 93° East  Level FlightAware Approximate
Sun 12:16:00 AM 56.0093 -30.2602 93° East  Level FlightAware Approximate
Sun 12:17:00 AM 56.0005 -30.0138 94° East  Level FlightAware Approximate
Sun 12:18:00 AM 55.9865 -29.7684 96° East  Level FlightAware Approximate
Sun 12:19:00 AM 55.9717 -29.5231 96° East  Level FlightAware Approximate
Sun 12:20:00 AM 55.9564 -29.2780 96° East  Level FlightAware Approximate
Sun 12:21:00 AM 55.9406 -29.0331 96° East  Level FlightAware Approximate
Sun 12:22:00 AM 55.9244 -28.7884 97° East  Level FlightAware Approximate
Sun 12:23:00 AM 55.9076 -28.5439 97° East  Level FlightAware Approximate
Sun 12:24:00 AM 55.8904 -28.2997 97° East  Level FlightAware Approximate
Sun 12:25:00 AM 55.8727 -28.0557 97° East  Level FlightAware Approximate
Sun 12:26:00 AM 55.8545 -27.8118 97° East  Level FlightAware Approximate
Sun 12:27:00 AM 55.8358 -27.5683 98° East  Level FlightAware Approximate
Sun 12:28:00 AM 55.8166 -27.3249 98° East  Level FlightAware Approximate
Sun 12:29:00 AM 55.7970 -27.0818 98° East  Level FlightAware Approximate
Sun 12:30:00 AM 55.7769 -26.8389 98° East  Level FlightAware Approximate
Sun 12:31:00 AM 55.7563 -26.5963 98° East  Level FlightAware Approximate
Sun 12:32:00 AM 55.7352 -26.3540 99° East  Level FlightAware Approximate
Sun 12:33:00 AM 55.7136 -26.1119 99° East  Level FlightAware Approximate
Sun 12:34:00 AM 55.6916 -25.8701 99° East  Level FlightAware Approximate
Sun 12:35:00 AM 55.6691 -25.6286 99° East  Level FlightAware Approximate
Sun 12:36:00 AM 55.6462 -25.3873 99° East  Level FlightAware Approximate
Sun 12:37:00 AM 55.6227 -25.1463 100° East  Level FlightAware Approximate
Sun 12:38:00 AM 55.5988 -24.9057 100° East  Level FlightAware Approximate
Sun 12:39:00 AM 55.5744 -24.6653 100° East  Level FlightAware Approximate
Sun 12:40:00 AM 55.5495 -24.4252 100° East  Level FlightAware Approximate
Sun 12:41:00 AM 55.5242 -24.1854 100° East  Level FlightAware Approximate
Sun 12:42:00 AM 55.4984 -23.9460 101° East  Level FlightAware Approximate
Sun 12:43:00 AM 55.4722 -23.7068 101° East  Level FlightAware Approximate
Sun 12:44:00 AM 55.4454 -23.4680 101° East  Level FlightAware Approximate
Sun 12:45:00 AM 55.4183 -23.2295 101° East  Level FlightAware Approximate
Sun 12:46:00 AM 55.3906 -22.9913 101° East  Level FlightAware Approximate
Sun 12:47:00 AM 55.3625 -22.7535 102° East  Level FlightAware Approximate
Sun 12:48:00 AM 55.3339 -22.5160 102° East  Level FlightAware Approximate
Sun 12:49:00 AM 55.3049 -22.2789 102° East  Level FlightAware Approximate
Sun 12:50:00 AM 55.2754 -22.0420 102° East  Level FlightAware Approximate
Sun 12:51:00 AM 55.2454 -21.8056 102° East  Level FlightAware Approximate
Sun 12:52:00 AM 55.2150 -21.5695 103° East  Level FlightAware Approximate
Sun 12:53:00 AM 55.1842 -21.3338 103° East  Level FlightAware Approximate
Sun 12:54:00 AM 55.1529 -21.0989 103° East  Level FlightAware Approximate
Sun 12:55:00 AM 55.1212 -20.8644 103° East  Level FlightAware Approximate
Sun 12:56:00 AM 55.0890 -20.6302 103° East  Level FlightAware Approximate
Sun 12:57:00 AM 55.0564 -20.3965 104° East  Level FlightAware Approximate
Sun 12:58:00 AM 55.0234 -20.1631 104° East  Level FlightAware Approximate
Sun 12:59:00 AM 54.9912 -19.9295 102° East  Level FlightAware Approximate
Sun 01:00:00 AM 54.9614 -19.6952 102° East  Level FlightAware Approximate
Sun 01:01:00 AM 54.9312 -19.4611 103° East  Level FlightAware Approximate
Sun 01:02:00 AM 54.9006 -19.2275 103° East  Level FlightAware Approximate
Sun 01:03:00 AM 54.8695 -18.9942 103° East  Level FlightAware Approximate
Sun 01:04:00 AM 54.8380 -18.7612 103° East  Level FlightAware Approximate
Sun 01:05:00 AM 54.8060 -18.5287 103° East  Level FlightAware Approximate
Sun 01:06:00 AM 54.7735 -18.2964 104° East  Level FlightAware Approximate
Sun 01:07:00 AM 54.7407 -18.0646 104° East  Level FlightAware Approximate
Sun 01:08:00 AM 54.7074 -17.8332 104° East  Level FlightAware Approximate
Sun 01:09:00 AM 54.6736 -17.6021 104° East  Level FlightAware Approximate
Sun 01:10:00 AM 54.6394 -17.3714 104° East  Level FlightAware Approximate
Sun 01:11:00 AM 54.6048 -17.1411 104° East  Level FlightAware Approximate
Sun 01:12:00 AM 54.5703 -16.9110 104° East  Level FlightAware Approximate
Sun 01:13:00 AM 54.5362 -16.6808 104° East  Level FlightAware Approximate
Sun 01:14:00 AM 54.5017 -16.4511 104° East  Level FlightAware Approximate
Sun 01:15:00 AM 54.4667 -16.2217 105° East  Level FlightAware Approximate
Sun 01:16:00 AM 54.4313 -15.9927 105° East  Level FlightAware Approximate
Sun 01:16:12 AM 53.9030 -14.3680 105° East 506 582 34,000  Level FlightAware ADS-B
Sun 01:17:00 AM 54.3955 -15.7641 105° East  Level FlightAware Approximate
Sun 01:17:02 AM 53.8720 -14.1710 105° East 504 580 34,000  Level FlightAware ADS-B
Sun 01:17:42 AM 53.8480 -14.0210 105° East 503 579 34,000  Level FlightAware ADS-B
Sun 01:18:27 AM 53.8200 -13.8490 105° East 502 578 34,000  Level FlightAware ADS-B
Sun 01:19:07 AM 53.7960 -13.6940 105° East 502 578 34,000  Level FlightAware ADS-B
Sun 01:19:47 AM 53.7710 -13.5450 106° East 498 573 34,000  Level FlightAware ADS-B
Sun 01:20:32 AM 53.7430 -13.3820 106° East 497 572 34,000  Level FlightAware ADS-B
Sun 01:21:12 AM 53.7170 -13.2270 106° East 497 572 34,000  Level FlightAware ADS-B
Sun 01:21:52 AM 53.6920 -13.0780 106° East 496 571 34,000  Level FlightAware ADS-B
Sun 01:22:37 AM 53.6630 -12.9070 106° East 495 570 34,000  Level FlightAware ADS-B
Sun 01:23:17 AM 53.6380 -12.7620 106° East 495 570 34,000  Level FlightAware ADS-B
Sun 01:24:02 AM 53.6090 -12.5980 107° East 496 571 34,000  Level FlightAware ADS-B
Sun 01:24:42 AM 53.5820 -12.4430 106° East 496 571 34,000  Level FlightAware ADS-B
Sun 01:25:22 AM 53.5570 -12.3010 106° East 498 573 34,000  Level FlightAware ADS-B
Sun 01:26:07 AM 53.5260 -12.1290 107° East 498 573 34,000  Level FlightAware ADS-B
Sun 01:26:47 AM 53.4990 -11.9800 107° East 496 571 34,000  Level FlightAware ADS-B
Sun 01:27:27 AM 53.4720 -11.8310 107° East 496 571 34,000  Level FlightAware ADS-B
Sun 01:28:12 AM 53.4430 -11.6710 107° East 496 571 34,000  Level FlightAware ADS-B
Sun 01:28:52 AM 53.4160 -11.5250 107° East 495 570 34,000  Level FlightAware ADS-B
Sun 01:29:37 AM 53.3850 -11.3560 107° East 492 566 34,000  Level FlightAware ADS-B
Sun 01:30:17 AM 53.3580 -11.2140 108° East 491 565 34,000  Level FlightAware ADS-B
Sun 01:30:57 AM 53.3300 -11.0660 108° East 492 566 34,000  Level FlightAware ADS-B
Sun 01:31:42 AM 53.2990 -10.9040 108° East 493 567 34,000  Level FlightAware ADS-B
Sun 01:32:22 AM 53.2710 -10.7610 108° East 491 565 34,000  Level FlightAware ADS-B
Sun 01:33:07 AM 53.2390 -10.5930 108° East 490 564 34,000  Level FlightAware ADS-B
Sun 01:33:47 AM 53.2110 -10.4520 108° East 489 563 34,000  Level FlightAware ADS-B
Sun 01:34:27 AM 53.1830 -10.3070 108° East 490 564 34,000  Level FlightAware ADS-B
Sun 01:35:12 AM 53.1510 -10.1490 109° East 492 566 34,000  Level FlightAware ADS-B
Sun 01:35:52 AM 53.1220 -10.0000 108° East 494 568 34,000  Level FlightAware ADS-B
Sun 01:36:32 AM 53.0920 -9.8540 109° East 499 574 34,000  Level FlightAware ADS-B
Sun 01:37:17 AM 53.0600 -9.6950 108° East 499 574 34,000  Level FlightAware ADS-B
Sun 01:37:57 AM 53.0290 -9.5460 109° East 499 574 34,000  Level FlightAware ADS-B
Sun 01:38:42 AM 52.9950 -9.3810 109° East 501 577 34,000  Level FlightAware ADS-B
Sun 01:39:22 AM 52.9660 -9.2380 109° East 502 578 34,000  Level FlightAware ADS-B
Sun 01:40:07 AM 52.9310 -9.0730 109° East 504 580 34,000 -1,452 Level FlightAware ADS-B
Sun 01:40:24 AM 52.9159 -9.0016 109° East 470 541 32,500 -2,743 Descending FlightAware UK
Sun 01:40:42 AM 52.9021 -8.9363 109° East 470 541 32,400 3,913 Descending FlightAware UK
Sun 01:40:47 AM 52.9000 -8.9270 109° East 504 580 34,000 250 Climbing FlightAware ADS-B
Sun 01:41:06 AM 52.8836 -8.8490 109° East 470 541 32,500  Descending FlightAware UK
Sun 01:41:22 AM 52.8740 -8.8060 109° East 502 578 34,000  Climbing FlightAware ADS-B
Sun 01:41:24 AM 52.8696 -8.7836 109° East 468 539 32,500 -4,800 Descending FlightAware UK
Sun 01:41:42 AM 52.8556 -8.7181 109° East 470 541 32,400 -167 Descending FlightAware UK
Sun 01:42:00 AM 52.8417 -8.6525 109° East 472 543 32,400 3,200 Level FlightAware UK
Sun 01:42:12 AM 52.8350 -8.6220 109° East 506 582 34,000  Climbing FlightAware ADS-B
Sun 01:42:30 AM 52.8182 -8.5437 109° East 470 541 32,400 -2,667 Descending FlightAware UK
Sun 01:42:48 AM 52.8040 -8.4785 110° East 472 543 32,400 4,364 Level FlightAware UK
Sun 01:42:52 AM 52.8030 -8.4720 110° East 505 581 34,000 250 Climbing FlightAware ADS-B
Sun 01:43:12 AM 52.7853 -8.3911 110° East 470 541 32,500 -2,368 Descending FlightAware UK
Sun 01:43:30 AM 52.7709 -8.3247 110° East 476 548 32,500 3,600 Level FlightAware UK
Sun 01:43:37 AM 52.7660 -8.3050 110° East 503 579 34,000 -250 Climbing FlightAware ADS-B
Sun 01:43:54 AM 52.7521 -8.2379 110° East 478 550 32,400 -2,743 Descending FlightAware UK
Sun 01:44:12 AM 52.7378 -8.1730 110° East 468 539 32,400 4,174 Level FlightAware UK
Sun 01:44:17 AM 52.7360 -8.1670 110° East 493 567 34,000 250 Climbing FlightAware ADS-B
Sun 01:44:36 AM 52.7193 -8.0900 110° East 466 536 32,500 -2,432 Descending FlightAware UK
Sun 01:44:54 AM 52.7054 -8.0271 110° East 468 539 32,500 4,286 Level FlightAware UK
Sun 01:44:57 AM 52.7050 -8.0280 110° East 490 564 34,000 -333 Climbing FlightAware ADS-B
Sun 01:45:12 AM 52.6915 -7.9644 110° East 466 536 32,400 -2,909 Descending FlightAware UK
Sun 01:45:30 AM 52.6775 -7.9012 110° East 468 539 32,400 3,200 Level FlightAware UK
Sun 01:45:42 AM 52.6710 -7.8720 110° East 486 559 34,000  Climbing FlightAware ADS-B
Sun 01:46:00 AM 52.6543 -7.7974 110° East 468 539 32,400 -2,667 Descending FlightAware UK
Sun 01:46:18 AM 52.6404 -7.7353 110° East 470 541 32,400 4,364 Level FlightAware UK
Sun 01:46:22 AM 52.6390 -7.7320 110° East 483 556 34,000  Climbing FlightAware ADS-B
Sun 01:46:42 AM 52.6219 -7.6528 110° East 468 539 32,400 -2,368 Descending FlightAware UK
Sun 01:47:00 AM 52.6082 -7.5915 110° East 466 536 32,500 3,840 Climbing FlightAware UK
Sun 01:47:07 AM 52.6050 -7.5790 110° East 475 547 34,000  Climbing FlightAware ADS-B
Sun 01:47:24 AM 52.5897 -7.5103 110° East 458 527 32,500 -2,571 Descending FlightAware UK
Sun 01:47:42 AM 52.5760 -7.4497 110° East 462 532 32,500 3,913 Level FlightAware UK
Sun 01:47:47 AM 52.5740 -7.4450 110° East 475 547 34,000  Climbing FlightAware ADS-B
Sun 01:48:06 AM 52.5576 -7.3690 110° East 462 532 32,500 -2,595 Descending FlightAware UK
Sun 01:48:24 AM 52.5438 -7.3084 111° Southeast 464 534 32,400 4,286 Descending FlightAware UK
Sun 01:48:27 AM 52.5440 -7.3100 111° Southeast 476 548 34,000  Climbing FlightAware ADS-B
Sun 01:48:42 AM 52.5299 -7.2479 111° Southeast 460 529 32,400 -3,091 Descending FlightAware UK
Sun 01:49:00 AM 52.5159 -7.1874 111° Southeast 464 534 32,300 2,600 Descending FlightAware UK
Sun 01:49:12 AM 52.5090 -7.1590 111° Southeast 475 547 33,700 -1,200 Climbing FlightAware ADS-B
Sun 01:49:30 AM 52.4924 -7.0861 111° Southeast 462 532 31,700 -3,667 Descending FlightAware UK
Sun 01:49:48 AM 52.4783 -7.0256 111° Southeast 466 536 31,500 3,545 Descending FlightAware UK
Sun 01:49:52 AM 52.4770 -7.0230 111° Southeast 478 550 33,000 -250 Climbing FlightAware ADS-B
Sun 01:50:12 AM 52.4595 -6.9448 111° Southeast 470 541 31,400 -2,526 Descending FlightAware UK
Sun 01:50:30 AM 52.4452 -6.8839 111° Southeast 466 536 31,400 3,840 Level FlightAware UK
Sun 01:50:37 AM 52.4420 -6.8710 111° Southeast 478 550 33,000  Climbing FlightAware ADS-B
Sun 01:50:54 AM 52.4261 -6.8026 111° Southeast 468 539 31,400 -2,743 Descending FlightAware UK
Sun 01:51:12 AM 52.4118 -6.7417 111° Southeast 468 539 31,400 4,174 Level FlightAware UK
Sun 01:51:17 AM 52.4100 -6.7350 111° Southeast 476 548 33,000  Climbing FlightAware ADS-B
Sun 01:51:36 AM 52.3928 -6.6610 111° Southeast 466 536 31,400 -2,595 Descending FlightAware UK
Sun 01:51:54 AM 52.3785 -6.6009 111° Southeast 466 536 31,400 4,571 Level FlightAware UK
Sun 01:51:57 AM 52.3770 -6.5950 111° Southeast 472 543 33,000  Climbing FlightAware ADS-B
Sun 01:52:12 AM 52.3643 -6.5411 111° Southeast 466 536 31,400 -2,909 Descending FlightAware UK
Sun 01:52:30 AM 52.3503 -6.4819 111° Southeast 464 534 31,400 3,200 Level FlightAware UK
Sun 01:52:42 AM 52.3420 -6.4500 111° Southeast 472 543 33,000  Climbing FlightAware ADS-B
Sun 01:53:00 AM 52.3266 -6.3830 111° Southeast 464 534 31,400 -2,667 Descending FlightAware UK
Sun 01:53:18 AM 52.3123 -6.3236 111° Southeast 466 536 31,400 4,364 Level FlightAware UK
Sun 01:53:22 AM 52.3110 -6.3190 111° Southeast 469 540 33,000  Climbing FlightAware ADS-B
Sun 01:53:42 AM 52.2932 -6.2447 111° Southeast 466 536 31,400 -2,526 Descending FlightAware UK
Sun 01:54:00 AM 52.2789 -6.1857 112° Southeast 466 536 31,400 3,840 Level FlightAware UK
Sun 01:54:07 AM 52.2750 -6.1690 112° Southeast 466 536 33,000  Climbing FlightAware ADS-B
Sun 01:54:24 AM 52.2597 -6.1067 112° Southeast 464 534 31,400 -2,571 Descending FlightAware UK
Sun 01:54:42 AM 52.2456 -6.0478 111° Southeast 464 534 31,500 4,174 Climbing FlightAware UK
Sun 01:54:47 AM 52.2440 -6.0440 111° Southeast 466 536 33,000  Climbing FlightAware ADS-B
Sun 01:55:06 AM 52.2266 -5.9696 111° Southeast 464 534 31,500 -2,432 Descending FlightAware UK
Sun 01:55:24 AM 52.2122 -5.9110 112° Southeast 464 534 31,500 4,286 Level FlightAware UK
Sun 01:55:27 AM 52.2110 -5.9080 112° Southeast 467 537 33,000 -333 Climbing FlightAware ADS-B
Sun 01:55:42 AM 52.1978 -5.8523 112° Southeast 464 534 31,400 -2,727 Descending FlightAware UK
Sun 01:56:00 AM 52.1834 -5.7937 112° Southeast 466 536 31,500 3,200 Climbing FlightAware UK
Sun 01:56:12 AM 52.1760 -5.7650 112° Southeast 467 537 33,000  Climbing FlightAware ADS-B
Sun 01:56:30 AM 52.1593 -5.6961 112° Southeast 466 536 31,500 -2,500 Descending FlightAware UK
Sun 01:56:48 AM 52.1448 -5.6376 112° Southeast 464 534 31,500 4,091 Level FlightAware UK
Sun 01:56:52 AM 52.1430 -5.6320 112° Southeast 467 537 33,000  Climbing FlightAware ADS-B
Sun 01:57:12 AM 52.1255 -5.5595 112° Southeast 464 534 31,500 -2,368 Descending FlightAware UK
Sun 01:57:30 AM 52.1110 -5.5009 112° Southeast 466 536 31,500 3,600 Level FlightAware UK
Sun 01:57:37 AM 52.1070 -5.4870 112° Southeast 467 537 33,000 -250 Climbing FlightAware ADS-B
Sun 01:57:54 AM 52.0915 -5.4229 112° Southeast 468 539 31,400 -2,743 Descending FlightAware UK
Sun 01:58:12 AM 52.0769 -5.3644 112° Southeast 468 539 31,400 5,333 Level FlightAware UK
Sun 01:58:12 AM 52.0790 -5.3740 112° Southeast 467 537 33,000 250 Climbing FlightAware ADS-B
Sun 01:58:36 AM 52.0570 -5.2859 112° Southeast 466 536 31,500 -2,143 Descending FlightAware UK
Sun 01:58:54 AM 52.0423 -5.2277 112° Southeast 468 539 31,500 4,286 Level FlightAware UK
Sun 01:58:57 AM 52.0420 -5.2280 112° Southeast 465 535 33,000  Climbing FlightAware ADS-B
Sun 01:59:12 AM 52.0276 -5.1696 112° Southeast 468 539 31,500 -2,727 Descending FlightAware UK
Sun 01:59:30 AM 52.0129 -5.1117 112° Southeast 466 536 31,500 3,000 Level FlightAware UK
Sun 01:59:42 AM 52.0050 -5.0810 112° Southeast 462 532 33,000  Climbing FlightAware ADS-B
Sun 02:00:00 AM 51.9902 -5.0150 112° Southeast 466 536 31,500 -2,500 Descending FlightAware UK
Sun 02:00:18 AM 51.9780 -4.9566 109° East 466 536 31,500 4,091 Level FlightAware UK
Sun 02:00:22 AM 51.9770 -4.9540 109° East 461 531 33,000  Climbing FlightAware ADS-B
Sun 02:00:42 AM 51.9609 -4.8784 109° East 464 534 31,500 -2,368 Descending FlightAware UK
Sun 02:01:00 AM 51.9483 -4.8198 109° East 462 532 31,500 3,600 Level FlightAware UK
Sun 02:01:07 AM 51.9460 -4.8070 109° East 462 532 33,000  Climbing FlightAware ADS-B
Sun 02:01:30 AM 51.9274 -4.7219 109° East 464 534 31,500  Descending FlightAware UK
Sun 02:01:47 AM 51.9170 -4.6710 109° East 464 534 33,000  Climbing FlightAware ADS-B
Sun 02:02:07 AM 51.9022 -4.6034 109° East 466 536 31,500 -2,368 Descending FlightAware UK
Sun 02:02:25 AM 51.8896 -4.5443 109° East 468 539 31,500 3,750 Level FlightAware UK
Sun 02:02:31 AM 51.8848 -4.5233 109° East 465 535 33,000  Climbing FlightAware ADS-B
Sun 02:02:49 AM 51.8727 -4.4657 109° East 470 541 31,500  Descending FlightAware UK
Sun 02:03:02 AM 51.8636 -4.4250 109° East 462 532 33,000  Climbing FlightAware ADS-B
Sun 02:03:19 AM 51.8515 -4.3683 109° East 466 536 31,500 -2,647 Descending FlightAware UK
Sun 02:03:36 AM 51.8390 -4.3109 109° East 466 536 31,500 2,432 Level FlightAware UK
Sun 02:03:56 AM 51.8253 -4.2483 109° East 460 529 33,000  Climbing FlightAware ADS-B
Sun 02:04:13 AM 51.8137 -4.1946 109° East 466 536 31,500  Descending FlightAware UK
Sun 02:04:33 AM 51.7994 -4.1300 109° East 457 526 33,000  Climbing FlightAware ADS-B
Sun 02:04:49 AM 51.7884 -4.0791 109° East 466 536 31,500 -2,647 Descending FlightAware UK
Sun 02:05:07 AM 51.7758 -4.0214 109° East 466 536 31,500 3,214 Level FlightAware UK
Sun 02:05:17 AM 51.7710 -3.9990 109° East 456 525 33,000  Climbing FlightAware ADS-B
Sun 02:05:37 AM 51.7547 -3.9255 109° East 466 536 31,500  Descending FlightAware UK
Sun 02:05:57 AM 51.7420 -3.8690 109° East 453 521 33,000 -429 Climbing FlightAware ADS-B
Sun 02:06:19 AM 51.7249 -3.7922 109° East 456 525 31,200 -973 Descending FlightAware UK
Sun 02:06:34 AM 51.7142 -3.7447 109° East 443 510 32,400 -1,200 Climbing FlightAware ADS-B
Sun 02:06:49 AM 51.7043 -3.6998 109° East 450 518 30,600 -1,235 Descending FlightAware UK
Sun 02:07:08 AM 51.6914 -3.6430 109° East 436 502 31,700 -1,500 Climbing FlightAware ADS-B
Sun 02:07:25 AM 51.6797 -3.5904 109° East 442 509 29,700 -1,355 Descending FlightAware UK
Sun 02:07:39 AM 51.6705 -3.5499 109° East 431 496 31,000 -1,400 Climbing FlightAware ADS-B
Sun 02:07:55 AM 51.6595 -3.5001 109° East 436 502 29,000 -1,742 Descending FlightAware UK
Sun 02:08:10 AM 51.6493 -3.4560 109° East 429 494 30,100 -1,600 Climbing FlightAware ADS-B
Sun 02:08:25 AM 51.6390 -3.4097 109° East 438 504 28,200 -938 Descending FlightAware UK
Sun 02:08:42 AM 51.6273 -3.3596 109° East 425 489 29,600 1,667 Climbing FlightAware ADS-B
Sun 02:09:01 AM 51.6155 -3.3044 109° East 416 479 29,200 -3,730 Descending FlightAware ADS-B
Sun 02:09:19 AM 51.6060 -3.2509 109° East 426 490 27,300 -1,235 Descending FlightAware UK
Sun 02:09:35 AM 51.5994 -3.2047 109° East 410 472 28,500 -1,333 Climbing FlightAware ADS-B
Sun 02:09:55 AM 51.5914 -3.1442 109° East 422 486 26,500 -1,400 Descending FlightAware UK
Sun 02:10:05 AM 51.5877 -3.1155 109° East 406 467 27,800 -1,333 Climbing FlightAware ADS-B
Sun 02:10:31 AM 51.5777 -3.0385 109° East 418 481 25,700 -1,231 Descending FlightAware UK
Sun 02:10:44 AM 51.5716 -3.0032 109° East 404 465 27,000 -1,200 Climbing FlightAware ADS-B
Sun 02:11:01 AM 51.5626 -2.9524 109° East 414 476 25,100 -3,771 Descending FlightAware UK
Sun 02:11:19 AM 51.5533 -2.9012 106° East 412 474 24,800 1,935 Descending FlightAware UK
Sun 02:11:32 AM 51.5468 -2.8647 106° East 397 457 26,100 -1,400 Climbing FlightAware ADS-B
Sun 02:11:49 AM 51.5382 -2.8158 106° East 408 470 24,100 -1,313 Descending FlightAware UK
Sun 02:12:04 AM 51.5309 -2.7766 106° East 395 455 25,400 -1,200 Climbing FlightAware ADS-B
Sun 02:12:19 AM 51.5229 -2.7316 106° East 402 463 23,500 -1,355 Descending FlightAware UK
Sun 02:12:35 AM 51.5148 -2.6894 106° East 395 455 24,700 -1,333 Climbing FlightAware ADS-B
Sun 02:12:55 AM 51.5042 -2.6312 106° East 398 458 22,700 -1,200 Descending FlightAware UK
Sun 02:13:10 AM 51.4965 -2.5921 106° East 394 453 24,000 -1,167 Climbing FlightAware ADS-B
Sun 02:13:31 AM 51.4850 -2.5310 106° East 396 456 22,000 -1,125 Descending FlightAware UK
Sun 02:13:42 AM 51.4794 -2.5030 106° East 392 451 23,400 -1,200 Climbing FlightAware ADS-B
Sun 02:14:01 AM 51.4688 -2.4475 106° East 392 451 21,400 -1,200 Descending FlightAware UK
Sun 02:14:12 AM 51.4632 -2.4205 106° East 389 448 22,800 1,143 Climbing FlightAware ADS-B
Sun 02:14:43 AM 51.4459 -2.3346 108° East 387 445 22,200 -1,258 Descending FlightAware ADS-B
Sun 02:15:14 AM 51.4290 -2.2526 108° East 383 441 21,500 -3,429 Descending FlightAware ADS-B
Sun 02:15:32 AM 51.4188 -2.2030 108° East 386 444 19,400 -1,800 Descending FlightAware UK
Sun 02:15:44 AM 51.4121 -2.1711 108° East 379 436 20,600 419 Climbing FlightAware ADS-B
Sun 02:16:15 AM 51.3951 -2.0904 109° East 374 430 19,700 -1,733 Descending FlightAware ADS-B
Sun 02:16:29 AM 51.3874 -2.0524 108° East 371 427 19,300 -4,759 Descending FlightAware ADS-B
Sun 02:16:44 AM 51.3805 -2.0136 108° East 380 437 17,400 -1,600 Descending FlightAware UK
Sun 02:16:59 AM 51.3748 -1.9730 108° East 363 418 18,500 -1,800 Climbing FlightAware ADS-B
Sun 02:17:14 AM 51.3693 -1.9347 108° East 370 426 16,500 -1,742 Descending FlightAware UK
Sun 02:17:30 AM 51.3626 -1.8933 108° East 360 414 17,600 -1,667 Climbing FlightAware ADS-B
Sun 02:17:50 AM 51.3548 -1.8420 108° East 368 423 15,500 -1,800 Descending FlightAware UK
Sun 02:18:00 AM 51.3515 -1.8158 108° East 354 407 16,700 -1,800 Climbing FlightAware ADS-B
Sun 02:18:20 AM 51.3465 -1.7653 108° East 360 414 14,600 -1,636 Descending FlightAware UK
Sun 02:18:33 AM 51.3430 -1.7319 108° East 350 403 15,800 409 Climbing FlightAware ADS-B
Sun 02:19:04 AM 51.3362 -1.6535 98° East 344 396 14,900 -1,625 Descending FlightAware ADS-B
Sun 02:19:21 AM 51.3327 -1.6107 97° East 340 391 14,500 -1,091 Descending FlightAware ADS-B
Sun 02:19:37 AM 51.3307 -1.5709 95° East 334 384 14,300 -3,429 Descending FlightAware ADS-B
Sun 02:19:56 AM 51.3293 -1.5252 95° East 344 396 12,500 -581 Descending FlightAware UK
Sun 02:20:08 AM 51.3287 -1.4984 95° East 315 362 14,000  Climbing FlightAware ADS-B
Sun 02:20:26 AM 51.3278 -1.4569 95° East 320 368 12,500  Descending FlightAware UK
Sun 02:20:38 AM 51.3273 -1.4316 95° East 288 331 14,000  Climbing FlightAware ADS-B
Sun 02:20:56 AM 51.3267 -1.3935 95° East 304 350 12,500  Descending FlightAware UK
Sun 02:21:09 AM 51.3262 -1.3677 95° East 282 325 14,000 -200 Climbing FlightAware ADS-B
Sun 02:21:26 AM 51.3257 -1.3312 95° East 304 350 12,400  Descending FlightAware UK
Sun 02:21:39 AM 51.3251 -1.3052 95° East 284 327 14,000  Climbing FlightAware ADS-B
Sun 02:21:56 AM 51.3245 -1.2685 95° East 306 352 12,400  Descending FlightAware UK
Sun 02:22:10 AM 51.3237 -1.2402 95° East 284 327 14,000  Climbing FlightAware ADS-B
Sun 02:22:32 AM 51.3230 -1.1929 95° East 304 350 12,400 -400 Descending FlightAware UK
Sun 02:22:40 AM 51.3224 -1.1759 95° East 283 326 13,800 -750 Climbing FlightAware ADS-B
Sun 02:22:56 AM 51.3218 -1.1428 95° East 300 345 12,100 -968 Descending FlightAware UK
Sun 02:23:11 AM 51.3210 -1.1137 95° East 278 320 13,300 -1,333 Climbing FlightAware ADS-B
Sun 02:23:32 AM 51.3201 -1.0686 95° East 292 336 11,300 -1,400 Descending FlightAware UK
Sun 02:23:41 AM 51.3198 -1.0516 95° East 277 319 12,600 -1,500 Climbing FlightAware ADS-B
Sun 02:23:56 AM 51.3193 -1.0201 95° East 294 338 10,700 -1,000 Descending FlightAware UK
Sun 02:24:11 AM 51.3185 -0.9902 95° East 272 313 12,100 -400 Climbing FlightAware ADS-B
Sun 02:24:26 AM 51.3179 -0.9591 95° East 282 325 10,500 -400 Descending FlightAware UK
Sun 02:24:41 AM 51.3170 -0.9312 95° East 257 296 11,900 -333 Climbing FlightAware ADS-B
Sun 02:25:02 AM 51.3162 -0.8921 95° East 262 302 10,300 -581 Descending FlightAware UK
Sun 02:25:12 AM 51.3157 -0.8755 95° East 248 285 11,600 1,105 Climbing FlightAware ADS-B
Sun 02:25:40 AM 51.3147 -0.8225 92° East 250 288 11,000 -1,322 Descending FlightAware ADS-B
Sun 02:26:11 AM 51.3133 -0.7658 92° East 253 291 10,300 -1,250 Descending FlightAware ADS-B
Sun 02:26:28 AM 51.3126 -0.7350 92° East 253 291 10,000 -1,125 Descending FlightAware ADS-B
Sun 02:26:43 AM 51.3118 -0.7065 93° East 253 291 9,700 -1,400 Descending FlightAware ADS-B
Sun 02:26:58 AM 51.3109 -0.6782 93° East 253 291 9,300 -1,355 Descending FlightAware ADS-B
Sun 02:27:14 AM 51.3102 -0.6485 92° East 253 291 9,000 -1,161 Descending FlightAware ADS-B
Sun 02:27:29 AM 51.3095 -0.6203 92° East 254 292 8,700 -1,400 Descending FlightAware ADS-B
Sun 02:27:44 AM 51.3087 -0.5914 93° East 254 292 8,300 -1,400 Descending FlightAware ADS-B
Sun 02:27:59 AM 51.3080 -0.5633 92° East 254 292 8,000 -581 Descending FlightAware ADS-B
Sun 02:28:15 AM 51.3073 -0.5338 92° East 250 288 8,000  Level FlightAware ADS-B
Sun 02:28:27 AM 51.3068 -0.5125 92° East 249 287 8,000  Level FlightAware ADS-B
Sun 02:28:42 AM 51.3060 -0.4843 93° East 250 288 8,000  Level FlightAware ADS-B
Sun 02:28:58 AM 51.3053 -0.4556 92° East 250 288 8,000  Level FlightAware ADS-B
Sun 02:29:04 AM 51.3048 -0.4437 94° East 252 290 8,000  Level FlightAware ADS-B
Sun 02:29:16 AM 51.3035 -0.4214 95° East 251 289 8,000  Level FlightAware ADS-B
Sun 02:29:31 AM 51.3009 -0.3945 99° East 252 290 8,000  Level FlightAware ADS-B
Sun 02:29:41 AM 51.2962 -0.3785 115° Southeast 255 293 8,000  Level FlightAware ADS-B
Sun 02:29:45 AM 51.2932 -0.3725 128° Southeast 255 293 8,000  Level FlightAware ADS-B
Sun 02:29:53 AM 51.2853 -0.3622 141° Southeast 255 293 8,000  Level FlightAware ADS-B
Sun 02:29:57 AM 51.2813 -0.3588 152° Southeast 254 292 8,000  Level FlightAware ADS-B
Sun 02:30:04 AM 51.2739 -0.3552 163° South 251 289 8,000  Level FlightAware ADS-B
Sun 02:30:10 AM 51.2670 -0.3542 175° South 249 287 8,000  Level FlightAware ADS-B
Sun 02:30:22 AM 51.2534 -0.3594 193° South 245 282 8,000  Level FlightAware ADS-B
Sun 02:30:27 AM 51.2487 -0.3639 211° Southwest 242 278 8,000  Level FlightAware ADS-B
Sun 02:30:33 AM 51.2440 -0.3704 221° Southwest 240 276 8,000  Level FlightAware ADS-B
Sun 02:30:36 AM 51.2414 -0.3755 231° Southwest 239 275 8,000 -600 Level FlightAware ADS-B
Sun 02:30:43 AM 51.2380 -0.3847 239° Southwest 238 274 7,900 -800 Descending FlightAware ADS-B
Sun 02:30:51 AM 51.2356 -0.3991 255° West 236 272 7,800 -1,000 Descending FlightAware ADS-B
Sun 02:30:55 AM 51.2355 -0.4055 269° West 235 270 7,700 -1,500 Descending FlightAware ADS-B
Sun 02:30:59 AM 51.2359 -0.4125 275° West 235 270 7,600 -1,714 Descending FlightAware ADS-B
Sun 02:31:02 AM 51.2368 -0.4184 284° West 236 272 7,500 -857 Descending FlightAware ADS-B
Sun 02:31:06 AM 51.2380 -0.4237 290° West 235 270 7,500 -857 Level FlightAware ADS-B
Sun 02:31:09 AM 51.2398 -0.4293 297° West 235 270 7,400 -1,500 Descending FlightAware ADS-B
Sun 02:31:14 AM 51.2425 -0.4353 306° West 235 270 7,300 -1,333 Descending FlightAware ADS-B
Sun 02:31:18 AM 51.2454 -0.4404 312° West 235 270 7,200 -1,714 Descending FlightAware ADS-B
Sun 02:31:21 AM 51.2483 -0.4443 320° Northwest 235 270 7,100 -667 Descending FlightAware ADS-B
Sun 02:31:27 AM 51.2530 -0.4492 327° Northwest 234 269 7,100 -600 Level FlightAware ADS-B
Sun 02:31:31 AM 51.2573 -0.4521 337° Northwest 234 269 7,000 -857 Descending FlightAware ADS-B
Sun 02:31:34 AM 51.2604 -0.4537 342° North 235 270 7,000  Level FlightAware ADS-B
Sun 02:31:37 AM 51.2638 -0.4547 349° North 235 270 7,000  Level FlightAware ADS-B
Sun 02:31:42 AM 51.2693 -0.4551 358° North 236 272 7,000  Level FlightAware ADS-B
Sun 02:31:46 AM 51.2739 -0.4542 North 237 273 7,000  Level FlightAware ADS-B
Sun 02:31:49 AM 51.2772 -0.4528 14° North 238 274 7,000  Level FlightAware ADS-B
Sun 02:31:53 AM 51.2808 -0.4505 22° Northeast 238 274 7,000  Level FlightAware ADS-B
Sun 02:31:57 AM 51.2849 -0.4469 29° Northeast 238 274 7,000  Level FlightAware ADS-B
Sun 02:32:02 AM 51.2894 -0.4411 39° Northeast 241 277 7,000  Level FlightAware ADS-B
Sun 02:32:07 AM 51.2930 -0.4343 50° Northeast 242 278 7,000  Level FlightAware ADS-B
Sun 02:32:12 AM 51.2958 -0.4269 59° Northeast 244 281 7,000  Level FlightAware ADS-B
Sun 02:32:17 AM 51.2979 -0.4185 68° East 245 282 7,000  Level FlightAware ADS-B
Sun 02:32:21 AM 51.2992 -0.4114 74° East 247 284 7,000  Level FlightAware ADS-B
Sun 02:32:35 AM 51.3031 -0.3868 76° East 247 284 7,000  Level FlightAware ADS-B
Sun 02:32:45 AM 51.3067 -0.3706 70° East 247 284 7,000  Level FlightAware ADS-B
Sun 02:33:00 AM 51.3129 -0.3444 69° East 245 282 7,000 -200 Level FlightAware ADS-B
Sun 02:33:15 AM 51.3191 -0.3185 69° East 248 285 6,900 -400 Descending FlightAware ADS-B
Sun 02:33:30 AM 51.3252 -0.2926 69° East 246 283 6,800 -563 Descending FlightAware ADS-B
Sun 02:33:47 AM 51.3316 -0.2650 70° East 243 280 6,600 -545 Descending FlightAware ADS-B
Sun 02:34:03 AM 51.3378 -0.2383 70° East 243 280 6,500 -581 Descending FlightAware ADS-B
Sun 02:34:18 AM 51.3436 -0.2132 70° East 243 280 6,300 -600 Descending FlightAware ADS-B
Sun 02:34:33 AM 51.3497 -0.1868 70° East 241 277 6,200 -621 Descending FlightAware ADS-B
Sun 02:34:47 AM 51.3550 -0.1637 70° East 239 275 6,000 -621 Descending FlightAware ADS-B
Sun 02:35:02 AM 51.3608 -0.1385 70° East 238 274 5,900 -581 Descending FlightAware ADS-B
Sun 02:35:18 AM 51.3665 -0.1128 70° East 239 275 5,700 -667 Descending FlightAware ADS-B
Sun 02:35:38 AM 51.3741 -0.0794 70° East 239 275 5,500 -667 Descending FlightAware ADS-B
Sun 02:35:45 AM 51.3772 -0.0690 65° Northeast 238 274 5,400 -545 Descending FlightAware ADS-B
Sun 02:35:49 AM 51.3798 -0.0629 55° Northeast 235 270 5,400 -750 Level FlightAware ADS-B
Sun 02:35:53 AM 51.3825 -0.0581 48° Northeast 232 267 5,300 -667 Descending FlightAware ADS-B
Sun 02:35:58 AM 51.3867 -0.0529 38° Northeast 227 261 5,300 -600 Level FlightAware ADS-B
Sun 02:36:03 AM 51.3915 -0.0489 27° Northeast 222 255 5,200 -545 Descending FlightAware ADS-B
Sun 02:36:09 AM 51.3970 -0.0466 15° North 214 246 5,200 -462 Level FlightAware ADS-B
Sun 02:36:16 AM 51.4034 -0.0457 North 208 239 5,100 -500 Descending FlightAware ADS-B
Sun 02:36:21 AM 51.4083 -0.0457 360° North 204 235 5,100 -600 Level FlightAware ADS-B
Sun 02:36:36 AM 51.4220 -0.0462 359° North 195 224 4,900 -581 Descending FlightAware ADS-B
Sun 02:36:52 AM 51.4367 -0.0468 359° North 188 216 4,800 -643 Descending FlightAware ADS-B
Sun 02:37:04 AM 51.4468 -0.0473 358° North 187 215 4,600 -750 Descending FlightAware ADS-B
Sun 02:37:08 AM 51.4506 -0.0479 354° North 187 215 4,600 -545 Level FlightAware ADS-B
Sun 02:37:15 AM 51.4559 -0.0507 342° North 186 214 4,500 -500 Descending FlightAware ADS-B
Sun 02:37:20 AM 51.4593 -0.0539 329° Northwest 185 213 4,500  Level FlightAware ADS-B
Sun 02:37:24 AM 51.4621 -0.0582 316° Northwest 185 213 4,500 -750 Level FlightAware ADS-B
Sun 02:37:28 AM 51.4641 -0.0625 307° West 186 214 4,400 -750 Descending FlightAware ADS-B
Sun 02:37:32 AM 51.4660 -0.0673 302° West 186 214 4,400  Level FlightAware ADS-B
Sun 02:37:37 AM 51.4682 -0.0738 299° West 185 213 4,400 -286 Level FlightAware ADS-B
Sun 02:37:53 AM 51.4741 -0.0930 296° West 186 214 4,300 -273 Descending FlightAware ADS-B
Sun 02:37:59 AM 51.4758 -0.1000 291° West 184 212 4,300  Level FlightAware ADS-B
Sun 02:38:03 AM 51.4768 -0.1061 285° West 185 213 4,300 -667 Level FlightAware ADS-B
Sun 02:38:08 AM 51.4774 -0.1130 278° West 186 214 4,200 -750 Descending FlightAware ADS-B
Sun 02:38:19 AM 51.4778 -0.1286 272° West 188 216 4,100 -643 Descending FlightAware ADS-B
Sun 02:38:36 AM 51.4781 -0.1522 271° West 188 216 3,900 -938 Descending FlightAware ADS-B
Sun 02:38:51 AM 51.4781 -0.1731 270° West 191 220 3,600 -1,600 Descending FlightAware ADS-B
Sun 02:39:06 AM 51.4779 -0.1946 269° West 196 226 3,100 -4,333 Descending FlightAware ADS-B
Sun 02:39:27 AM 51.4782 -0.2253 269° West 202 232 1,000 -1,304 Descending FlightAware UK
Sun 02:39:52 AM 51.4780 -0.2606 269° West 188 216 2,100 -1,000 Climbing FlightAware ADS-B
Sun 02:40:09 AM 51.4780 -0.2828 269° West 178 205 300 -857 Descending FlightAware UK
Sun 02:40:27 AM 51.4780 -0.3020 269° West 166 191 1,600 906 Climbing FlightAware ADS-B
Sun 02:41:02 AM 51.4780 -0.3390 270° West 156 180 1,100 -831 Descending FlightAware ADS-B
Sun 02:41:32 AM 51.4780 -0.3760 270° West 156 180 700 -873 Descending FlightAware ADS-B
Sun 02:41:57 AM 51.4780 -0.4060 270° West 156 180 300 -960 Descending FlightAware ADS-B
Sun 02:42:47 AM 51.4780 -0.4580 270° West 157 181 -360 Descending FlightAware ADS-B

Login

Don't have an account? Register now (free) for customized features, flight alerts, and more!